METAR Data
IDs: Format: Raw Decoded Include TAF

Data at: 1347 UTC 14 Dec 2019

METAR for:KCCY (Charles City/NE Iowa, IA, US)
Text:KCCY 141335Z AUTO 31013KT 6SM BR OVC010 M08/M09 A2986 RMK AO2
Temperature: -8.0°C ( 18°F)
Dewpoint: -9.0°C ( 16°F) [RH = 92%]
Pressure (altimeter):29.86 inches Hg (1011.3 mb)
Winds:from the NW (310 degrees) at 15 MPH (13 knots; 6.7 m/s)
Visibility: 6 sm ( 10 km)
Ceiling:1000 feet AGL
Clouds: overcast cloud deck at 1000 feet AGL
Weather:BR (mist)
QC Flag:automated observation with no human augmentation